Terminal Aerodrome Forecast
Issued by NWS St Louis, MO

Home | Current Version | Previous Version | Text Only | Print | Product List | Glossary On
Versions: 1 2 3 4 5 6 7 8 9 10 11 12 13 14 15 16 17 18 19 20 21 22 23 24 25 26 27 28 29 30
058
FTUS43 KLSX 182103 AAA
TAFSTL
TAF AMD
KSTL 182103Z 1821/1924 15015G21KT P6SM OVC250
     FM190300 17013KT P6SM OVC070 WS017/20045KT
     FM190700 18013KT 6SM -RA VCTS OVC025CB WS017/21045KT
     FM191500 19015G25KT 6SM -SHRA OVC025
     FM191800 19015G25KT P6SM OVC035=

USA.gov is the U.S. government's official web portal to all federal, state and local government web resources and services.